Pickering, Louisiana
Current Conditions -  °F | °C
As of 9:58 AM on Sunday 25 Jan 2015 (Local Time) from KPOE Reporting Station
Clear Clear  
Wind Chill: 52°   Ceiling: Unl
Heat Index: 52°   Visibility: 10mi
Dew Point: 41°   Wind: 8mph
Humidity: 66%   Direction: 230°SW
Pressure: 29.97"   Gusts: NA
Location:  31.2063°N, 93.1344°W
Report Text: KPOE 251558Z AUTO 23007KT 10SM CLR 11/05 A2997 RMK AO2 SLP151 T01130052 $
Loading
Personal Weather Stations






























Interactive Weather Map New forecast layout! Learn more

10-Day Weather Forecast

Advertisements
Track Severe Weather on mobile